Time;durP1;ratioP1;P1;durP2;ratioP2;P2;SDS_P1;SDS_P2;PMS_P1;PMS_P2;Temp;Humidity;BMP_temperature;BMP_pressure;BME280_temperature;BME280_humidity;BME280_pressure;Samples;Min_cycle;Max_cycle;Signal;HPM_P1;HPM_P2
2023/04/11 00:02:42;;;;;;;7.88;5.60;;;;;;;;;;12853335;23;20012;-85
2023/04/11 00:07:45;;;;;;;7.07;5.72;;;;;;;;;;12880628;22;20028;-84
2023/04/11 00:12:45;;;;;;;;;;;;;;;;;;12884812;23;20024;-78
2023/04/11 00:17:47;;;;;;;7.88;5.90;;;;;;;;;;12894109;23;19923;-77
2023/04/11 00:22:48;;;;;;;7.72;6.00;;;;;;;;;;12885473;23;20020;-78
2023/04/11 00:27:50;;;;;;;7.28;5.72;;;;;;;;;;12955209;23;20023;-77
2023/04/11 00:32:50;;;;;;;7.93;5.35;;;;;;;;;;12915443;23;20012;-78
2023/04/11 00:37:54;;;;;;;6.43;5.83;;;;;;;;;;12860229;22;20016;-77
2023/04/11 00:42:55;;;;;;;8.48;5.90;;;;;;;;;;12911416;23;20012;-75
2023/04/11 00:47:56;;;;;;;7.18;5.45;;;;;;;;;;12883737;22;20377;-78
2023/04/11 00:52:57;;;;;;;8.18;6.10;;;;;;;;;;12880445;22;20108;-78
2023/04/11 00:57:57;;;;;;;7.45;5.63;;;;;;;;;;12878882;23;20039;-78
2023/04/11 01:02:59;;;;;;;8.98;5.45;;;;;;;;;;12879998;23;20483;-77
2023/04/11 01:08:01;;;;;;;6.95;5.65;;;;;;;;;;12879857;22;20043;-76
2023/04/11 01:13:01;;;;;;;7.25;5.70;;;;;;;;;;12905554;23;20095;-77
2023/04/11 01:18:03;;;;;;;7.13;5.53;;;;;;;;;;12856140;23;20095;-78
2023/04/11 01:23:04;;;;;;;8.45;6.00;;;;;;;;;;12863406;23;20015;-79
2023/04/11 01:28:07;;;;;;;;;;;;;;;;;;12908148;23;20019;-77
2023/04/11 01:33:13;;;;;;;7.78;5.82;;;;;;;;;;12878590;23;19915;-78
2023/04/11 01:38:15;;;;;;;7.65;6.13;;;;;;;;;;12906387;23;20016;-79
2023/04/11 01:43:17;;;;;;;9.57;7.03;;;;;;;;;;12906288;23;20510;-81
2023/04/11 01:48:19;;;;;;;8.27;6.00;;;;;;;;;;12905516;22;20047;-79
2023/04/11 01:53:19;;;;;;;9.05;6.88;;;;;;;;;;12908253;22;20019;-81
2023/04/11 01:58:20;;;;;;;11.52;7.70;;;;;;;;;;12878950;23;20016;-80
2023/04/11 02:03:21;;;;;;;9.68;6.93;;;;;;;;;;12905471;23;20095;-80
2023/04/11 02:08:22;;;;;;;10.85;7.28;;;;;;;;;;12904466;22;20012;-79
2023/04/11 02:13:22;;;;;;;11.05;7.53;;;;;;;;;;12905739;23;20012;-77
2023/04/11 02:18:22;;;;;;;12.80;8.68;;;;;;;;;;12907258;22;20020;-77
2023/04/11 02:23:23;;;;;;;12.77;8.40;;;;;;;;;;12880511;22;20022;-79
2023/04/11 02:28:23;;;;;;;11.50;7.20;;;;;;;;;;12907399;23;20242;-77
2023/04/11 02:33:27;;;;;;;11.43;7.80;;;;;;;;;;12851332;23;20267;-78
2023/04/11 02:38:28;;;;;;;10.10;7.38;;;;;;;;;;12877528;23;20012;-76
2023/04/11 02:43:28;;;;;;;12.15;7.57;;;;;;;;;;12876642;23;20059;-78
2023/04/11 02:48:31;;;;;;;11.65;7.28;;;;;;;;;;12858719;23;20031;-76
2023/04/11 02:53:34;;;;;;;10.90;7.47;;;;;;;;;;12884221;23;20020;-77
2023/04/11 02:58:37;;;;;;;11.50;7.30;;;;;;;;;;12915076;23;20019;-80
2023/04/11 03:03:40;;;;;;;10.65;7.70;;;;;;;;;;12898122;23;20023;-75
2023/04/11 03:08:41;;;;;;;10.57;7.00;;;;;;;;;;12897118;22;20068;-80
2023/04/11 03:13:43;;;;;;;10.77;7.05;;;;;;;;;;12917415;23;20016;-75
2023/04/11 03:18:44;;;;;;;11.07;7.38;;;;;;;;;;12911129;22;20040;-80
2023/04/11 03:23:46;;;;;;;11.83;7.83;;;;;;;;;;12877532;23;20402;-76
2023/04/11 03:28:50;;;;;;;10.63;7.72;;;;;;;;;;12852957;23;20031;-76
2023/04/11 03:33:53;;;;;;;12.95;8.25;;;;;;;;;;12860206;23;20091;-76
2023/04/11 03:38:53;;;;;;;10.25;7.53;;;;;;;;;;12859524;23;20078;-73
2023/04/11 03:43:53;;;;;;;11.55;8.00;;;;;;;;;;12860664;23;20095;-74
2023/04/11 03:49:00;;;;;;;12.50;8.02;;;;;;;;;;12883340;23;20283;-76
2023/04/11 03:54:01;;;;;;;15.30;9.15;;;;;;;;;;12854823;23;20023;-75
2023/04/11 03:59:11;;;;;;;13.32;8.43;;;;;;;;;;12909865;23;20024;-75
2023/04/11 04:04:26;;;;;;;12.35;7.68;;;;;;;;;;12907197;22;20426;-75
2023/04/11 04:09:40;;;;;;;12.27;7.68;;;;;;;;;;12880277;22;20608;-76
2023/04/11 04:14:40;;;;;;;14.40;8.75;;;;;;;;;;12882599;23;20031;-79
2023/04/11 04:19:45;;;;;;;13.60;8.00;;;;;;;;;;12884094;23;20525;-77
2023/04/11 04:24:47;;;;;;;13.88;7.78;;;;;;;;;;12885091;23;20051;-80
2023/04/11 04:29:55;;;;;;;11.18;7.28;;;;;;;;;;12883887;22;20438;-75
2023/04/11 04:35:00;;;;;;;11.13;7.47;;;;;;;;;;12880645;23;20814;-78
2023/04/11 04:40:07;;;;;;;11.55;6.85;;;;;;;;;;12881742;23;20040;-78
2023/04/11 04:45:14;;;;;;;9.57;6.95;;;;;;;;;;12879746;23;20020;-76
2023/04/11 04:50:17;;;;;;;8.20;5.75;;;;;;;;;;12880211;23;20016;-79
2023/04/11 04:55:17;;;;;;;7.30;5.30;;;;;;;;;;12857057;23;20344;-79
2023/04/11 05:00:22;;;;;;;7.25;5.30;;;;;;;;;;12882111;23;20107;-76
2023/04/11 05:05:23;;;;;;;6.57;5.00;;;;;;;;;;12856815;22;20016;-75
2023/04/11 05:10:24;;;;;;;6.22;4.20;;;;;;;;;;12878746;23;20012;-75
2023/04/11 05:15:25;;;;;;;5.32;3.63;;;;;;;;;;12880586;23;20020;-77
2023/04/11 05:20:28;;;;;;;3.28;1.48;;;;;;;;;;12864696;23;20040;-78
2023/04/11 05:25:31;;;;;;;3.22;1.30;;;;;;;;;;12880931;23;20126;-76
2023/04/11 05:30:32;;;;;;;2.17;1.13;;;;;;;;;;12891796;23;20020;-76
2023/04/11 05:35:33;;;;;;;1.80;1.30;;;;;;;;;;12860108;23;20047;-77
2023/04/11 05:40:34;;;;;;;3.25;1.27;;;;;;;;;;12877401;23;20016;-76
2023/04/11 05:45:35;;;;;;;2.90;1.20;;;;;;;;;;12904258;23;20016;-75
2023/04/11 05:50:38;;;;;;;5.03;1.88;;;;;;;;;;12906395;23;20020;-75
2023/04/11 05:55:38;;;;;;;2.90;1.30;;;;;;;;;;12879776;23;20420;-76
2023/04/11 06:00:40;;;;;;;1.50;1.20;;;;;;;;;;12879332;23;20251;-77
2023/04/11 06:05:40;;;;;;;3.10;1.40;;;;;;;;;;12904192;22;20016;-76
2023/04/11 06:10:41;;;;;;;1.55;0.93;;;;;;;;;;12876658;23;20016;-75
2023/04/11 06:15:41;;;;;;;1.58;1.15;;;;;;;;;;12902820;23;20093;-77
2023/04/11 06:20:41;;;;;;;3.20;1.70;;;;;;;;;;12903634;23;20008;-75
2023/04/11 06:25:42;;;;;;;1.80;0.90;;;;;;;;;;12903535;23;20258;-76
2023/04/11 06:30:42;;;;;;;4.97;2.27;;;;;;;;;;12875113;23;20341;-74
2023/04/11 06:35:43;;;;;;;4.00;1.00;;;;;;;;;;12902231;22;20019;-75
2023/04/11 06:40:43;;;;;;;1.30;0.93;;;;;;;;;;12902024;23;20421;-76
2023/04/11 06:45:45;;;;;;;1.20;0.95;;;;;;;;;;12875685;23;20111;-76
2023/04/11 06:50:47;;;;;;;4.10;1.52;;;;;;;;;;12902474;23;20024;-75
2023/04/11 06:55:47;;;;;;;3.35;1.70;;;;;;;;;;12847679;23;20386;-75
2023/04/11 07:00:48;;;;;;;1.30;0.90;;;;;;;;;;12901465;23;20039;-77
2023/04/11 07:05:49;;;;;;;2.13;1.10;;;;;;;;;;12874358;22;20043;-78
2023/04/11 07:10:50;;;;;;;3.58;0.95;;;;;;;;;;12876102;23;20019;-75
2023/04/11 07:15:52;;;;;;;2.13;1.00;;;;;;;;;;12878008;23;20020;-77
2023/04/11 07:20:54;;;;;;;1.13;1.00;;;;;;;;;;12875234;23;20425;-78
2023/04/11 07:25:58;;;;;;;2.22;1.48;;;;;;;;;;12877611;23;20034;-77
2023/04/11 07:30:59;;;;;;;2.95;0.98;;;;;;;;;;12875374;23;20086;-78
2023/04/11 07:36:00;;;;;;;2.88;1.25;;;;;;;;;;12849294;23;20162;-77
2023/04/11 07:41:01;;;;;;;3.57;1.20;;;;;;;;;;12901849;23;20115;-76
2023/04/11 07:46:03;;;;;;;1.33;0.73;;;;;;;;;;12875972;23;20043;-75
2023/04/11 07:51:04;;;;;;;5.60;2.87;;;;;;;;;;12907620;23;20070;-78
2023/04/11 07:56:05;;;;;;;1.33;0.60;;;;;;;;;;12876795;23;21078;-76
2023/04/11 08:01:24;;;;;;;2.25;0.80;;;;;;;;;;12876159;23;20104;-75
2023/04/11 08:06:25;;;;;;;2.80;0.90;;;;;;;;;;12906083;22;20016;-78
2023/04/11 08:11:25;;;;;;;1.80;0.80;;;;;;;;;;12902007;22;20114;-77
2023/04/11 08:16:26;;;;;;;3.13;1.10;;;;;;;;;;12901943;23;20030;-76
2023/04/11 08:21:26;;;;;;;1.75;1.05;;;;;;;;;;12901888;23;20906;-78
2023/04/11 08:26:26;;;;;;;2.17;1.10;;;;;;;;;;12873948;22;20423;-77
2023/04/11 08:31:27;;;;;;;1.80;0.80;;;;;;;;;;12875605;23;20099;-80
2023/04/11 08:36:28;;;;;;;3.53;1.00;;;;;;;;;;12849442;23;20383;-76
2023/04/11 08:41:31;;;;;;;3.50;1.40;;;;;;;;;;12874778;23;20023;-76
2023/04/11 08:46:39;;;;;;;3.08;1.20;;;;;;;;;;12889927;23;20023;-77
2023/04/11 08:51:40;;;;;;;2.60;1.27;;;;;;;;;;12906182;23;20016;-78
2023/04/11 08:56:42;;;;;;;4.72;1.40;;;;;;;;;;12951787;23;20020;-77
2023/04/11 09:01:43;;;;;;;5.68;1.55;;;;;;;;;;12916378;23;20019;-78
2023/04/11 09:06:55;;;;;;;4.25;1.50;;;;;;;;;;12878036;22;20087;-77
2023/04/11 09:11:56;;;;;;;2.28;1.10;;;;;;;;;;12883328;23;20024;-78
2023/04/11 09:17:01;;;;;;;4.65;1.30;;;;;;;;;;12856789;23;20020;-79
2023/04/11 09:22:04;;;;;;;6.07;1.23;;;;;;;;;;12906421;23;20098;-78
2023/04/11 09:27:12;;;;;;;4.40;1.33;;;;;;;;;;12826191;23;20038;-78
2023/04/11 09:32:31;;;;;;;3.10;1.15;;;;;;;;;;12902454;22;20021;-79
2023/04/11 09:37:51;;;;;;;3.25;1.10;;;;;;;;;;12876340;23;20857;-80
2023/04/11 09:43:10;;;;;;;3.20;1.20;;;;;;;;;;12905685;23;20608;-78
2023/04/11 09:48:11;;;;;;;1.35;0.90;;;;;;;;;;12906100;23;20102;-80
2023/04/11 09:53:12;;;;;;;2.90;1.40;;;;;;;;;;12878569;23;20558;-79
2023/04/11 09:58:14;;;;;;;5.07;1.52;;;;;;;;;;12880172;23;20016;-80
2023/04/11 10:03:15;;;;;;;3.03;1.20;;;;;;;;;;12877415;23;20024;-81
2023/04/11 10:08:22;;;;;;;2.40;1.73;;;;;;;;;;12907536;22;20011;-80
2023/04/11 10:13:35;;;;;;;1.80;1.20;;;;;;;;;;12921473;23;20031;-80
2023/04/11 10:18:36;;;;;;;2.83;1.67;;;;;;;;;;12920467;23;20016;-82
2023/04/11 10:23:55;;;;;;;3.78;1.63;;;;;;;;;;12891334;23;20038;-83
2023/04/11 10:28:55;;;;;;;2.00;1.30;;;;;;;;;;12886810;23;20012;-81
2023/04/11 10:34:13;;;;;;;4.40;1.42;;;;;;;;;;12887060;23;20099;-81
2023/04/11 10:39:16;;;;;;;2.50;1.13;;;;;;;;;;12913238;22;20072;-82
2023/04/11 10:44:20;;;;;;;3.85;1.20;;;;;;;;;;12885247;23;20012;-83
2023/04/11 10:49:40;;;;;;;1.67;0.85;;;;;;;;;;12917052;23;20456;-80
2023/04/11 10:54:47;;;;;;;4.97;1.30;;;;;;;;;;12913812;22;20024;-82
2023/04/11 10:59:50;;;;;;;1.88;1.10;;;;;;;;;;12959819;22;20012;-84
2023/04/11 11:04:55;;;;;;;2.35;1.10;;;;;;;;;;12940171;23;20077;-81
2023/04/11 11:09:56;;;;;;;3.63;1.07;;;;;;;;;;12923109;22;20548;-80
2023/04/11 11:14:56;;;;;;;2.50;1.10;;;;;;;;;;12910524;23;20098;-81
2023/04/11 11:19:57;;;;;;;4.90;1.30;;;;;;;;;;12920990;23;20016;-81
2023/04/11 11:25:07;;;;;;;2.63;0.97;;;;;;;;;;12905226;23;20020;-81
2023/04/11 11:30:12;;;;;;;4.43;1.50;;;;;;;;;;12862909;23;20259;-85
2023/04/11 11:35:13;;;;;;;1.83;0.90;;;;;;;;;;12910280;23;20030;-84
2023/04/11 11:40:13;;;;;;;3.28;1.10;;;;;;;;;;12910810;23;20012;-85
2023/04/11 11:45:15;;;;;;;1.80;0.85;;;;;;;;;;12880844;22;20107;-86
2023/04/11 11:50:35;;;;;;;1.40;0.80;;;;;;;;;;12930833;22;20012;-81
2023/04/11 11:55:36;;;;;;;3.08;0.98;;;;;;;;;;12898952;22;20054;-82
2023/04/11 12:00:39;;;;;;;2.65;1.65;;;;;;;;;;12934215;22;20070;-82
2023/04/11 12:05:43;;;;;;;2.92;0.90;;;;;;;;;;12894528;22;20024;-79
2023/04/11 12:10:47;;;;;;;2.40;1.20;;;;;;;;;;12923671;23;20386;-79
2023/04/11 12:15:53;;;;;;;2.45;1.42;;;;;;;;;;12927780;23;20020;-83
2023/04/11 12:20:55;;;;;;;2.40;1.20;;;;;;;;;;12939750;23;20445;-80
2023/04/11 12:25:55;;;;;;;2.45;1.30;;;;;;;;;;12932323;23;20025;-85
2023/04/11 12:30:57;;;;;;;1.02;0.93;;;;;;;;;;12919832;22;20072;-84
2023/04/11 12:36:12;;;;;;;2.95;1.05;;;;;;;;;;12976971;22;20028;-84
2023/04/11 12:41:15;;;;;;;1.67;0.90;;;;;;;;;;12980963;22;20044;-83
2023/04/11 12:46:18;;;;;;;3.42;1.20;;;;;;;;;;12926055;22;20000;-85
2023/04/11 12:51:21;;;;;;;3.00;1.40;;;;;;;;;;12908701;22;20012;-83
2023/04/11 12:56:23;;;;;;;3.65;1.27;;;;;;;;;;12924290;22;20049;-86
2023/04/11 13:01:31;;;;;;;2.60;1.23;;;;;;;;;;12916002;23;20016;-85
2023/04/11 13:06:36;;;;;;;3.47;1.00;;;;;;;;;;12934109;22;20008;-83
2023/04/11 13:11:42;;;;;;;3.67;1.75;;;;;;;;;;12893342;22;20020;-81
2023/04/11 13:16:47;;;;;;;2.65;1.00;;;;;;;;;;12928349;23;20027;-84
2023/04/11 13:21:48;;;;;;;3.67;1.10;;;;;;;;;;12888623;23;20015;-84
2023/04/11 13:26:55;;;;;;;0.88;0.70;;;;;;;;;;12888218;23;20043;-82
2023/04/11 13:42:54;;;;;;;2.28;1.05;;;;;;;;;;12900227;22;20008;-84
2023/04/11 13:59:26;;;;;;;2.70;1.23;;;;;;;;;;12976129;22;20007;-82
2023/04/11 14:10:06;;;;;;;1.95;0.60;;;;;;;;;;13016592;22;20055;-83
2023/04/11 14:27:42;;;;;;;1.98;0.95;;;;;;;;;;13090060;22;20087;-84
2023/04/11 14:33:32;;;;;;;3.92;0.90;;;;;;;;;;13077058;22;20019;-85
2023/04/11 14:39:07;;;;;;;1.95;0.80;;;;;;;;;;13058189;22;20058;-86
2023/04/11 14:44:59;;;;;;;2.25;1.00;;;;;;;;;;13093163;22;20019;-82
2023/04/11 14:50:42;;;;;;;5.03;0.95;;;;;;;;;;13073822;22;20049;-83
2023/04/11 15:01:08;;;;;;;2.85;0.90;;;;;;;;;;13014021;22;20032;-81
2023/04/11 15:06:12;;;;;;;2.05;1.00;;;;;;;;;;13071866;22;20034;-85
2023/04/11 15:11:13;;;;;;;2.03;1.13;;;;;;;;;;12982193;22;20011;-82
2023/04/11 15:16:13;;;;;;;2.13;1.00;;;;;;;;;;12985403;22;20515;-85
2023/04/11 15:21:18;;;;;;;3.47;1.13;;;;;;;;;;13003696;22;20246;-86
2023/04/11 15:26:20;;;;;;;;;;;;;;;;;;12998677;22;20015;-84
2023/04/11 15:31:24;;;;;;;3.15;1.38;;;;;;;;;;12985803;22;20248;-82
2023/04/11 15:36:24;;;;;;;2.42;0.93;;;;;;;;;;12988674;22;20045;-81
2023/04/11 15:41:25;;;;;;;2.83;0.95;;;;;;;;;;12977820;22;20061;-81
2023/04/11 15:46:26;;;;;;;1.60;0.75;;;;;;;;;;12925063;22;20353;-81
2023/04/11 15:51:27;;;;;;;2.05;1.05;;;;;;;;;;12955719;22;20023;-81
2023/04/11 15:56:28;;;;;;;2.58;1.23;;;;;;;;;;12954640;22;20769;-82
2023/04/11 16:01:29;;;;;;;3.03;1.27;;;;;;;;;;12980446;22;20011;-83
2023/04/11 16:06:30;;;;;;;2.53;1.05;;;;;;;;;;12983734;22;20241;-81
2023/04/11 16:11:30;;;;;;;2.53;1.30;;;;;;;;;;12980634;22;20437;-79
2023/04/11 16:16:31;;;;;;;2.72;1.05;;;;;;;;;;12928606;22;20062;-81
2023/04/11 16:21:31;;;;;;;10.03;1.70;;;;;;;;;;12971182;22;20063;-83
2023/04/11 16:26:32;;;;;;;1.65;0.80;;;;;;;;;;12997246;22;20073;-80
2023/04/11 16:31:32;;;;;;;2.13;1.10;;;;;;;;;;12977818;22;20689;-81
2023/04/11 16:36:33;;;;;;;2.60;0.93;;;;;;;;;;12980872;22;20015;-79
2023/04/11 16:41:35;;;;;;;4.10;1.65;;;;;;;;;;12956564;22;20587;-81
2023/04/11 16:46:39;;;;;;;3.70;1.23;;;;;;;;;;12991944;22;20012;-83
2023/04/11 16:51:39;;;;;;;1.52;1.13;;;;;;;;;;12967764;22;20015;-82
2023/04/11 16:56:40;;;;;;;3.10;1.33;;;;;;;;;;12956874;22;20055;-78
2023/04/11 17:01:41;;;;;;;1.43;1.00;;;;;;;;;;12949737;22;20242;-79
2023/04/11 17:06:41;;;;;;;2.42;1.05;;;;;;;;;;12955904;22;20011;-83
2023/04/11 17:11:42;;;;;;;2.33;1.03;;;;;;;;;;12940630;22;20011;-81
2023/04/11 17:16:42;;;;;;;3.77;1.53;;;;;;;;;;13020146;22;20369;-82
2023/04/11 17:21:43;;;;;;;2.15;1.27;;;;;;;;;;13005216;22;20255;-84
2023/04/11 17:26:45;;;;;;;1.57;1.10;;;;;;;;;;13024904;22;20150;-80
2023/04/11 17:31:46;;;;;;;2.95;1.30;;;;;;;;;;12975332;22;20382;-83
2023/04/11 17:36:47;;;;;;;2.95;1.40;;;;;;;;;;12984663;22;20019;-83
2023/04/11 17:41:49;;;;;;;2.92;1.27;;;;;;;;;;12985416;22;20610;-82
2023/04/11 17:46:49;;;;;;;3.05;1.40;;;;;;;;;;12967976;22;20019;-83
2023/04/11 17:51:52;;;;;;;4.10;1.50;;;;;;;;;;12951439;22;20025;-81
2023/04/11 17:56:52;;;;;;;4.63;1.23;;;;;;;;;;12987212;22;20046;-81
2023/04/11 18:01:54;;;;;;;2.65;1.38;;;;;;;;;;13013779;22;20272;-85
2023/04/11 18:06:55;;;;;;;4.80;1.85;;;;;;;;;;12951136;22;20055;-81
2023/04/11 18:11:57;;;;;;;2.95;1.67;;;;;;;;;;12967966;22;20011;-83
2023/04/11 18:16:57;;;;;;;3.15;1.10;;;;;;;;;;12984534;22;20020;-82
2023/04/11 18:22:01;;;;;;;1.83;1.17;;;;;;;;;;13004871;22;20030;-83
2023/04/11 18:27:03;;;;;;;3.92;1.55;;;;;;;;;;12961201;22;20350;-82
2023/04/11 18:32:07;;;;;;;2.60;1.80;;;;;;;;;;12941854;22;20025;-81
2023/04/11 18:37:11;;;;;;;1.77;1.30;;;;;;;;;;12964846;22;20055;-82
2023/04/11 18:42:15;;;;;;;2.92;1.23;;;;;;;;;;12983108;22;20016;-85
2023/04/11 18:47:16;;;;;;;6.20;1.70;;;;;;;;;;13005933;22;20027;-85
2023/04/11 18:57:49;;;;;;;5.85;1.70;;;;;;;;;;12990217;22;20028;-83
2023/04/11 19:02:50;;;;;;;2.78;1.13;;;;;;;;;;13001186;22;20020;-80
2023/04/11 19:07:53;;;;;;;4.63;1.70;;;;;;;;;;12990608;22;20011;-83
2023/04/11 19:12:58;;;;;;;2.28;1.52;;;;;;;;;;12996544;22;20832;-83
2023/04/11 19:18:00;;;;;;;4.68;1.95;;;;;;;;;;12996003;22;20019;-84
2023/04/11 19:23:02;;;;;;;3.13;1.43;;;;;;;;;;12966677;22;20054;-82
2023/04/11 19:28:05;;;;;;;5.47;1.58;;;;;;;;;;12960823;22;20270;-85
2023/04/11 19:33:06;;;;;;;3.80;1.85;;;;;;;;;;12958794;22;20012;-85
2023/04/11 19:38:06;;;;;;;4.05;1.80;;;;;;;;;;12994125;22;20015;-80
2023/04/11 19:43:07;;;;;;;3.97;1.80;;;;;;;;;;12953993;22;20337;-80
2023/04/11 19:48:07;;;;;;;3.92;3.13;;;;;;;;;;12963864;22;20027;-83
2023/04/11 19:53:09;;;;;;;2.88;1.88;;;;;;;;;;12972596;22;19996;-81
2023/04/11 19:58:12;;;;;;;3.22;1.70;;;;;;;;;;12990725;22;20035;-81
2023/04/11 20:03:15;;;;;;;3.80;1.60;;;;;;;;;;12962051;22;20023;-81
2023/04/11 20:08:20;;;;;;;3.15;1.65;;;;;;;;;;12951795;22;20020;-79
2023/04/11 20:13:20;;;;;;;2.55;1.55;;;;;;;;;;12951490;22;20081;-83
2023/04/11 20:18:20;;;;;;;4.45;1.88;;;;;;;;;;12954692;22;20059;-81
2023/04/11 20:23:23;;;;;;;7.32;2.15;;;;;;;;;;12985811;22;20015;-81
2023/04/11 20:28:27;;;;;;;2.47;1.80;;;;;;;;;;12929172;22;20015;-79
2023/04/11 20:33:27;;;;;;;5.95;2.53;;;;;;;;;;12973664;22;20020;-82
2023/04/11 20:38:30;;;;;;;2.70;1.88;;;;;;;;;;12987510;22;21041;-80
2023/04/11 20:43:31;;;;;;;4.43;2.15;;;;;;;;;;12981046;22;20471;-83
2023/04/11 20:48:32;;;;;;;3.47;2.20;;;;;;;;;;12930306;22;20015;-81
2023/04/11 20:53:32;;;;;;;2.80;1.92;;;;;;;;;;12933172;22;20027;-81
2023/04/11 20:58:33;;;;;;;4.40;2.17;;;;;;;;;;12931273;22;20019;-80
2023/04/11 21:03:36;;;;;;;4.32;2.15;;;;;;;;;;12988520;22;20526;-80
2023/04/11 21:08:37;;;;;;;6.75;4.15;;;;;;;;;;12951498;22;20020;-82
2023/04/11 21:13:39;;;;;;;4.47;2.80;;;;;;;;;;12951202;22;20028;-81
2023/04/11 21:18:40;;;;;;;3.53;2.35;;;;;;;;;;12969456;22;20057;-85
2023/04/11 21:23:42;;;;;;;2.95;2.00;;;;;;;;;;12957790;22;20012;-82
2023/04/11 21:28:44;;;;;;;6.03;2.20;;;;;;;;;;12978520;22;20466;-84
2023/04/11 21:33:46;;;;;;;3.20;2.03;;;;;;;;;;12977987;22;20028;-84
2023/04/11 21:38:46;;;;;;;3.75;2.55;;;;;;;;;;12938687;22;20019;-83
2023/04/11 21:43:48;;;;;;;5.87;3.07;;;;;;;;;;13009354;22;20022;-81
2023/04/11 21:48:48;;;;;;;5.32;2.47;;;;;;;;;;12947386;22;20766;-81
2023/04/11 21:53:51;;;;;;;4.32;2.38;;;;;;;;;;12989817;22;20019;-82
2023/04/11 21:58:53;;;;;;;2.67;2.25;;;;;;;;;;12950273;22;20082;-84
2023/04/11 22:03:57;;;;;;;4.45;2.15;;;;;;;;;;12927592;22;20012;-81
2023/04/11 22:09:00;;;;;;;3.67;1.77;;;;;;;;;;12995004;22;20018;-83
2023/04/11 22:14:00;;;;;;;4.63;2.10;;;;;;;;;;13030232;22;20012;-82
2023/04/11 22:19:01;;;;;;;3.28;1.80;;;;;;;;;;12984283;22;20019;-81
2023/04/11 22:24:08;;;;;;;3.47;2.20;;;;;;;;;;12976058;22;20012;-82
2023/04/11 22:29:10;;;;;;;7.22;2.20;;;;;;;;;;12972944;22;20016;-86
2023/04/11 22:34:14;;;;;;;5.22;1.90;;;;;;;;;;12971369;22;20035;-81
2023/04/11 22:39:15;;;;;;;4.97;2.17;;;;;;;;;;12943462;22;20105;-81
2023/04/11 22:44:15;;;;;;;4.53;1.85;;;;;;;;;;12971391;22;20086;-83
2023/04/11 22:49:19;;;;;;;5.07;2.00;;;;;;;;;;12950049;22;20452;-82
2023/04/11 22:54:21;;;;;;;4.45;1.98;;;;;;;;;;12976687;22;20369;-80
2023/04/11 22:59:27;;;;;;;5.20;2.00;;;;;;;;;;12929013;22;20046;-80
2023/04/11 23:04:40;;;;;;;3.97;2.35;;;;;;;;;;12962721;22;20487;-84
2023/04/11 23:09:43;;;;;;;6.00;3.23;;;;;;;;;;12971331;22;20313;-81
2023/04/11 23:14:45;;;;;;;4.28;2.35;;;;;;;;;;12952815;22;20093;-83
2023/04/11 23:19:47;;;;;;;4.03;2.20;;;;;;;;;;12977238;22;20016;-80
2023/04/11 23:24:52;;;;;;;5.32;2.63;;;;;;;;;;12975247;22;20521;-81
2023/04/11 23:29:53;;;;;;;4.82;2.05;;;;;;;;;;12974038;22;20030;-79
2023/04/11 23:34:53;;;;;;;4.95;2.72;;;;;;;;;;12972823;22;20127;-82
2023/04/11 23:39:58;;;;;;;4.75;2.92;;;;;;;;;;12943930;22;20445;-80
2023/04/11 23:44:58;;;;;;;4.80;2.50;;;;;;;;;;12971370;22;20489;-79
2023/04/11 23:50:07;;;;;;;3.33;2.38;;;;;;;;;;12981252;22;20002;-81
2023/04/11 23:55:08;;;;;;;5.07;2.33;;;;;;;;;;12967825;22;20024;-82
